createdAt,value
2022-08-16T00:01:33.751Z,97617.88
2022-08-16T00:04:05.146Z,97623.34
2022-08-16T00:06:36.555Z,97618.81
2022-08-16T00:09:10.831Z,97627.41
2022-08-16T00:11:43.017Z,97628.59
2022-08-16T00:14:17.433Z,97633.59
2022-08-16T00:17:06.600Z,97634.03
2022-08-16T00:19:41.746Z,97639.63
2022-08-16T00:22:15.195Z,97638.69
2022-08-16T00:24:51.407Z,97636.84
2022-08-16T00:27:21.266Z,97637.88
2022-08-16T00:30:00.486Z,97640.00
2022-08-16T00:32:43.071Z,97650.16
2022-08-16T00:35:17.289Z,97649.66
2022-08-16T00:37:57.182Z,97653.25
2022-08-16T00:40:50.939Z,97649.31
2022-08-16T00:43:43.258Z,97649.66
2022-08-16T00:46:34.641Z,97653.22
2022-08-16T00:49:17.352Z,97654.44
2022-08-16T00:51:55.649Z,97656.88
2022-08-16T00:54:28.829Z,97655.66
2022-08-16T00:57:00.899Z,97652.03
2022-08-16T00:59:35.096Z,97661.63
2022-08-16T01:02:31.182Z,97652.88
2022-08-16T01:05:09.094Z,97658.50
2022-08-16T01:07:51.062Z,97665.81
2022-08-16T01:10:31.553Z,97667.59
2022-08-16T01:13:26.669Z,97664.78
2022-08-16T01:16:03.550Z,97667.34
2022-08-16T01:19:07.657Z,97667.34
2022-08-16T01:22:48.474Z,97672.34
2022-08-16T01:24:56.710Z,97673.34
2022-08-16T01:27:34.562Z,97676.09
2022-08-16T01:30:19.941Z,97681.19
2022-08-16T01:33:02.954Z,97686.44
2022-08-16T01:35:47.184Z,97686.44
2022-08-16T01:38:33.702Z,97684.97
2022-08-16T01:41:12.487Z,97680.56
2022-08-16T01:43:54.309Z,97680.47
2022-08-16T01:46:39.117Z,97681.06
2022-08-16T01:49:24.433Z,97687.63
2022-08-16T01:52:29.290Z,97688.84
2022-08-16T01:55:14.543Z,97697.25
2022-08-16T01:57:53.557Z,97695.53
2022-08-16T02:00:29.104Z,97707.94
2022-08-16T02:03:02.541Z,97700.50
2022-08-16T02:05:32.206Z,97699.53
2022-08-16T02:08:06.629Z,97700.44
2022-08-16T02:10:39.460Z,97695.16
2022-08-16T02:13:11.219Z,97699.16
2022-08-16T02:15:43.769Z,97701.53
2022-08-16T02:18:18.771Z,97700.44
2022-08-16T02:20:53.396Z,97701.34
2022-08-16T02:23:24.676Z,97700.91
2022-08-16T02:25:54.808Z,97689.97
2022-08-16T02:28:27.266Z,97702.06
2022-08-16T02:30:59.323Z,97702.16
2022-08-16T02:33:44.582Z,97698.91
2022-08-16T02:36:42.310Z,97706.34
2022-08-16T02:39:22.468Z,97705.59
2022-08-16T02:41:54.337Z,97710.22
2022-08-16T02:44:26.999Z,97709.13
2022-08-16T02:46:59.256Z,97712.28
2022-08-16T02:49:59.146Z,97723.31
2022-08-16T02:52:25.017Z,97715.72
2022-08-16T02:55:06.628Z,97719.63
2022-08-16T02:57:42.323Z,97707.66
2022-08-16T03:00:33.890Z,97720.47
2022-08-16T03:03:10.587Z,97711.50
2022-08-16T03:05:40.465Z,97718.81
2022-08-16T03:08:50.616Z,97717.34
2022-08-16T03:11:03.504Z,97722.81
2022-08-16T03:13:40.029Z,97720.38
2022-08-16T03:16:38.160Z,97722.53
2022-08-16T03:19:03.538Z,97719.13
2022-08-16T03:21:37.831Z,97724.19
2022-08-16T03:24:29.215Z,97731.44
2022-08-16T03:27:03.247Z,97729.81
2022-08-16T03:29:35.063Z,97729.47
2022-08-16T03:32:07.369Z,97728.81
2022-08-16T03:34:37.149Z,97728.66
2022-08-16T03:37:06.715Z,97724.66
2022-08-16T03:39:42.942Z,97726.59
2022-08-16T03:42:20.599Z,97727.72
2022-08-16T03:45:03.430Z,97732.88
2022-08-16T03:47:36.902Z,97726.34
2022-08-16T03:50:25.670Z,97730.44
2022-08-16T03:53:02.176Z,97737.78
2022-08-16T03:55:45.577Z,97739.78
2022-08-16T03:58:16.592Z,97737.72
2022-08-16T04:00:46.749Z,97746.59
2022-08-16T04:03:26.671Z,97750.53
2022-08-16T04:06:00.293Z,97751.22
2022-08-16T04:08:34.740Z,97750.81
2022-08-16T04:11:05.047Z,97750.41
2022-08-16T04:13:59.187Z,97751.78
2022-08-16T04:16:28.280Z,97752.97
2022-08-16T04:19:13.929Z,97744.19
2022-08-16T04:21:46.154Z,97752.41
2022-08-16T04:24:28.610Z,97753.13
2022-08-16T04:27:00.164Z,97748.22
2022-08-16T04:29:43.790Z,97753.22
2022-08-16T04:32:19.596Z,97757.53
2022-08-16T04:34:53.972Z,97746.56
2022-08-16T04:37:25.577Z,97750.72
2022-08-16T04:40:05.665Z,97762.41
2022-08-16T04:42:38.256Z,97772.56
2022-08-16T04:45:09.075Z,97768.44
2022-08-16T05:08:28.838Z,97757.75
2022-08-16T05:11:08.319Z,97757.66
2022-08-16T05:13:42.673Z,97757.38
2022-08-16T05:16:29.898Z,97761.03
2022-08-16T05:19:13.169Z,97753.09
2022-08-16T05:22:05.784Z,97755.50
2022-08-16T05:24:39.103Z,97750.72
2022-08-16T05:27:11.436Z,97746.69
2022-08-16T05:30:00.165Z,97747.25
2022-08-16T05:32:36.509Z,97749.47
2022-08-16T05:58:48.208Z,97739.75
2022-08-16T06:01:18.343Z,97734.81
2022-08-16T06:03:51.800Z,97736.06
2022-08-16T06:06:29.112Z,97726.13
2022-08-16T06:09:00.166Z,97735.53
2022-08-16T06:11:30.596Z,97729.38
2022-08-16T06:14:04.171Z,97725.84
2022-08-16T06:16:39.685Z,97725.16
2022-08-16T06:19:24.187Z,97727.06
2022-08-16T06:22:02.354Z,97732.31
2022-08-16T06:24:54.745Z,97734.47
2022-08-16T06:27:23.265Z,97724.09
2022-08-16T06:29:52.875Z,97723.56
2022-08-16T06:32:27.778Z,97718.00
2022-08-16T06:35:03.020Z,97718.91
2022-08-16T06:37:37.394Z,97712.94
2022-08-16T06:40:12.960Z,97711.09
2022-08-16T06:42:57.310Z,97706.63
2022-08-16T06:45:51.483Z,97708.75
2022-08-16T06:48:33.010Z,97709.66
2022-08-16T06:51:07.353Z,97709.41
2022-08-16T06:53:37.759Z,97718.31
2022-08-16T06:56:14.495Z,97716.91
2022-08-16T06:59:11.976Z,97707.31
2022-08-16T07:01:54.054Z,97716.25
2022-08-16T07:04:32.772Z,97715.06
2022-08-16T07:07:19.848Z,97698.34
2022-08-16T07:09:51.338Z,97702.06
2022-08-16T07:12:47.178Z,97697.91
2022-08-16T07:15:17.021Z,97698.28
2022-08-16T07:17:50.826Z,97704.03
2022-08-16T07:20:35.057Z,97691.16
2022-08-16T07:23:13.610Z,97696.19
2022-08-16T07:25:52.857Z,97692.78
2022-08-16T07:28:24.351Z,97686.19
2022-08-16T07:30:57.354Z,97685.47
2022-08-16T07:33:53.501Z,97679.50
2022-08-16T07:36:33.903Z,97675.25
2022-08-16T07:39:04.722Z,97679.50
2022-08-16T07:41:41.312Z,97668.88
2022-08-16T07:44:16.366Z,97677.50
2022-08-16T07:46:55.438Z,97673.75
2022-08-16T07:49:26.655Z,97674.88
2022-08-16T07:52:18.937Z,97667.22
2022-08-16T07:54:53.307Z,97663.88
2022-08-16T07:57:24.735Z,97665.22
2022-08-16T07:59:57.251Z,97664.16
2022-08-16T08:02:28.066Z,97660.53
2022-08-16T08:04:59.158Z,97669.56
2022-08-16T08:07:33.048Z,97656.91
2022-08-16T08:10:10.935Z,97660.25
2022-08-16T08:12:42.075Z,97659.91
2022-08-16T08:15:14.795Z,97652.25
2022-08-16T08:17:55.767Z,97652.28
2022-08-16T08:20:35.312Z,97644.31
2022-08-16T08:23:07.746Z,97638.63
2022-08-16T08:25:54.917Z,97636.59
2022-08-16T08:28:30.287Z,97623.00
2022-08-16T08:31:04.703Z,97627.41
2022-08-16T08:33:43.828Z,97625.16
2022-08-16T08:36:25.198Z,97617.34
2022-08-16T08:39:12.687Z,97610.69
2022-08-16T08:41:46.550Z,97611.38
2022-08-16T08:44:28.041Z,97608.88
2022-08-16T08:47:12.081Z,97602.38
2022-08-16T08:49:50.584Z,97591.41
2022-08-16T08:52:34.110Z,97596.72
2022-08-16T08:55:10.942Z,97591.06
2022-08-16T08:57:44.422Z,97586.41
2022-08-16T09:00:51.131Z,97578.41
2022-08-16T09:03:22.809Z,97581.22
2022-08-16T09:05:52.322Z,97584.25
2022-08-16T09:08:26.378Z,97570.28
2022-08-16T09:11:03.188Z,97570.78
2022-08-16T09:13:36.845Z,97564.13
2022-08-16T09:17:02.751Z,97565.31
2022-08-16T09:21:41.520Z,97556.66
2022-08-16T09:24:11.976Z,97558.50
2022-08-16T09:27:20.207Z,97553.19
2022-08-16T09:29:59.913Z,97541.84
2022-08-16T09:32:33.213Z,97547.66
2022-08-16T09:35:03.363Z,97539.84
2022-08-16T09:37:36.833Z,97538.22
2022-08-16T09:40:33.109Z,97534.06
2022-08-16T09:42:59.850Z,97532.22
2022-08-16T09:45:29.835Z,97520.56
2022-08-16T09:47:59.548Z,97520.22
2022-08-16T09:50:38.177Z,97507.06
2022-08-16T09:53:16.781Z,97507.84
2022-08-16T09:55:49.602Z,97507.25
2022-08-16T09:58:41.971Z,97495.56
2022-08-16T10:01:11.255Z,97496.56
2022-08-16T10:04:02.708Z,97496.91
2022-08-16T10:06:33.195Z,97495.59
2022-08-16T10:09:11.245Z,97487.31
2022-08-16T10:12:11.436Z,97483.31
2022-08-16T10:14:48.988Z,97474.34
2022-08-16T10:17:18.435Z,97470.50
2022-08-16T10:19:50.361Z,97473.34
2022-08-16T10:22:22.982Z,97467.66
2022-08-16T10:24:55.951Z,97464.91
2022-08-16T10:27:46.228Z,97475.19
2022-08-16T10:30:25.344Z,97459.25
2022-08-16T10:32:57.754Z,97457.75
2022-08-16T10:35:32.562Z,97454.22
2022-08-16T10:38:02.761Z,97453.25
2022-08-16T10:40:36.340Z,97452.09
2022-08-16T10:43:08.386Z,97454.78
2022-08-16T10:46:00.905Z,97453.97
2022-08-16T10:48:31.377Z,97458.09
2022-08-16T10:51:01.596Z,97453.78
2022-08-16T10:53:34.107Z,97450.41
2022-08-16T10:56:52.435Z,97446.78
2022-08-16T11:07:45.514Z,97437.84
2022-08-16T11:13:58.274Z,97436.50
2022-08-16T11:19:04.056Z,97431.19
2022-08-16T11:22:22.829Z,97436.50
2022-08-16T11:24:40.155Z,97431.50
2022-08-16T11:27:19.610Z,97423.03
2022-08-16T11:29:53.538Z,97427.22
2022-08-16T11:32:31.864Z,97426.22
2022-08-16T11:35:13.927Z,97423.72
2022-08-16T11:38:47.511Z,97425.38
2022-08-16T11:41:07.387Z,97422.25
2022-08-16T11:43:39.055Z,97421.91
2022-08-16T11:46:44.468Z,97416.94
2022-08-16T11:49:00.676Z,97417.59
2022-08-16T11:51:30.858Z,97416.59
2022-08-16T11:54:00.052Z,97415.28
2022-08-16T11:56:51.784Z,97409.28
2022-08-16T11:59:20.365Z,97412.63
2022-08-16T12:01:59.511Z,97405.66
2022-08-16T12:04:30.433Z,97398.16
2022-08-16T12:06:59.729Z,97402.97
2022-08-16T12:09:31.499Z,97395.66
2022-08-16T12:12:02.979Z,97391.44
2022-08-16T12:14:59.275Z,97392.66
2022-08-16T12:17:50.309Z,97392.69
2022-08-16T12:20:45.728Z,97402.94
2022-08-16T12:23:37.195Z,97399.94
2022-08-16T12:26:27.661Z,97407.91
2022-08-16T12:29:17.945Z,97407.78
2022-08-16T12:32:26.553Z,97399.97
2022-08-16T12:35:21.079Z,97409.94
2022-08-16T12:38:41.285Z,97413.75
2022-08-16T12:41:24.470Z,97412.38
2022-08-16T12:44:19.927Z,97420.69
2022-08-16T12:47:29.189Z,97416.47
2022-08-16T12:50:19.473Z,97425.63
2022-08-16T12:53:09.674Z,97434.41
2022-08-16T12:56:00.953Z,97434.38
2022-08-16T12:58:52.153Z,97434.03
2022-08-16T13:01:43.441Z,97430.19
2022-08-16T13:04:34.453Z,97437.97
2022-08-16T13:07:27.164Z,97438.59
2022-08-16T13:10:21.019Z,97433.47
2022-08-16T13:13:27.391Z,97440.94
2022-08-16T13:16:20.783Z,97439.72
2022-08-16T13:19:14.617Z,97459.41
2022-08-16T13:22:05.123Z,97465.34
2022-08-16T13:24:55.815Z,97457.06
2022-08-16T13:28:02.639Z,97469.41
2022-08-16T13:30:57.816Z,97469.78
2022-08-16T13:33:47.753Z,97472.84
2022-08-16T13:36:48.435Z,97475.47
2022-08-16T13:39:43.169Z,97473.78
2022-08-16T13:42:33.302Z,97482.69
2022-08-16T13:45:33.152Z,97488.13
2022-08-16T13:48:43.354Z,97499.25
2022-08-16T13:51:34.720Z,97494.53
2022-08-16T13:54:27.458Z,97491.88
2022-08-16T13:57:20.973Z,97494.31
2022-08-16T14:00:30.791Z,97510.44
2022-08-16T14:03:22.694Z,97524.00
2022-08-16T14:06:15.490Z,97517.72
2022-08-16T14:09:08.138Z,97524.22
2022-08-16T14:12:04.437Z,97538.94
2022-08-16T14:15:12.781Z,97541.72
2022-08-16T14:18:20.189Z,97542.94
2022-08-16T14:21:10.365Z,97549.41
2022-08-16T14:24:04.238Z,97555.53
2022-08-16T14:27:06.338Z,97550.00
2022-08-16T14:29:57.022Z,97559.53
2022-08-16T14:32:51.175Z,97569.13
2022-08-16T14:35:48.987Z,97574.19
2022-08-16T14:38:42.445Z,97573.84
2022-08-16T14:41:33.680Z,97568.84
2022-08-16T14:44:26.082Z,97580.81
2022-08-16T14:47:17.810Z,97588.06
2022-08-16T14:50:12.882Z,97595.56
2022-08-16T14:53:12.451Z,97595.56
2022-08-16T14:56:02.842Z,97605.38
2022-08-16T14:58:54.521Z,97617.34
2022-08-16T15:01:58.760Z,97623.44
2022-08-16T15:04:51.389Z,97623.31
2022-08-16T15:07:40.971Z,97626.81
2022-08-16T15:10:32.217Z,97634.88
2022-08-16T15:13:22.992Z,97644.25
2022-08-16T15:16:14.311Z,97650.47
2022-08-16T15:19:05.055Z,97656.91
2022-08-16T15:21:54.969Z,97669.78
2022-08-16T15:24:44.761Z,97675.91
2022-08-16T15:27:38.080Z,97663.88
2022-08-16T15:30:59.899Z,97666.00
2022-08-16T15:33:48.580Z,97670.50
2022-08-16T15:36:42.407Z,97675.16
2022-08-16T15:39:38.867Z,97669.47
2022-08-16T15:42:29.617Z,97678.63
2022-08-16T15:45:43.982Z,97685.31
2022-08-16T15:48:34.561Z,97690.66
2022-08-16T15:51:30.650Z,97681.44
2022-08-16T15:54:30.377Z,97685.66
2022-08-16T15:57:21.238Z,97685.09
2022-08-16T16:00:15.242Z,97691.34
2022-08-16T16:03:09.641Z,97685.22
2022-08-16T16:06:02.298Z,97689.53
2022-08-16T16:08:51.821Z,97685.66
2022-08-16T16:11:41.914Z,97685.97
2022-08-16T16:14:33.367Z,97696.38
2022-08-16T16:17:22.888Z,97693.03
2022-08-16T16:20:14.897Z,97689.84
2022-08-16T16:23:28.474Z,97692.31
2022-08-16T16:26:19.949Z,97698.06
2022-08-16T16:29:15.005Z,97693.03
2022-08-16T16:32:11.753Z,97689.16
2022-08-16T16:35:12.510Z,97687.31
2022-08-16T16:38:07.982Z,97685.09
2022-08-16T16:41:03.775Z,97691.81
2022-08-16T16:44:00.120Z,97690.97
2022-08-16T16:46:56.760Z,97685.09
2022-08-16T16:49:51.272Z,97679.09
2022-08-16T16:52:45.222Z,97680.09
2022-08-16T16:55:39.573Z,97677.56
2022-08-16T16:58:53.991Z,97679.69
2022-08-16T17:01:59.447Z,97675.09
2022-08-16T17:04:59.550Z,97666.34
2022-08-16T17:07:49.966Z,97663.16
2022-08-16T17:10:46.542Z,97668.75
2022-08-16T17:13:49.383Z,97662.06
2022-08-16T17:16:41.278Z,97660.00
2022-08-16T17:19:40.766Z,97662.91
2022-08-16T17:25:41.442Z,97655.84
2022-08-16T17:28:58.652Z,97663.38
2022-08-16T17:31:43.554Z,97659.88
2022-08-16T17:34:33.334Z,97660.72
2022-08-16T17:37:48.768Z,97667.41
2022-08-16T17:39:28.400Z,97660.16
2022-08-16T17:40:58.579Z,97664.31
2022-08-16T17:43:48.511Z,97674.63
2022-08-16T17:46:41.172Z,97664.88
2022-08-16T17:49:42.301Z,97664.88
2022-08-16T17:52:32.178Z,97666.03
2022-08-16T17:55:30.798Z,97670.44
2022-08-16T17:58:22.946Z,97672.72
2022-08-16T18:01:14.607Z,97673.56
2022-08-16T18:04:09.597Z,97669.25
2022-08-16T18:07:00.129Z,97669.38
2022-08-16T18:09:49.489Z,97669.09
2022-08-16T18:12:51.304Z,97671.06
2022-08-16T18:15:45.221Z,97678.56
2022-08-16T18:18:35.535Z,97675.78
2022-08-16T18:21:43.539Z,97674.94
2022-08-16T18:24:33.227Z,97672.72
2022-08-16T18:27:26.764Z,97664.94
2022-08-16T18:30:19.129Z,97667.00
2022-08-16T18:33:09.009Z,97664.63
2022-08-16T18:35:59.313Z,97663.53
2022-08-16T18:38:48.909Z,97656.41
2022-08-16T18:41:39.991Z,97656.41
2022-08-16T18:44:33.300Z,97657.41
2022-08-16T18:47:24.900Z,97655.47
2022-08-16T18:50:14.409Z,97654.34
2022-08-16T18:53:07.811Z,97651.41
2022-08-16T18:56:00.196Z,97660.72
2022-08-16T18:58:50.540Z,97654.88
2022-08-16T19:01:40.073Z,97656.84
2022-08-16T19:04:55.122Z,97653.38
2022-08-16T19:07:39.704Z,97641.94
2022-08-16T19:10:31.616Z,97640.53
2022-08-16T19:13:24.773Z,97636.47
2022-08-16T19:16:16.054Z,97629.25
2022-08-16T19:19:06.030Z,97629.84
2022-08-16T19:21:55.915Z,97622.03
2022-08-16T19:24:45.230Z,97620.94
2022-08-16T19:27:35.285Z,97623.59
2022-08-16T19:30:25.472Z,97628.44
2022-08-16T19:33:15.346Z,97620.78
2022-08-16T19:36:04.958Z,97623.19
2022-08-16T19:38:55.233Z,97619.41
2022-08-16T19:41:53.205Z,97614.81
2022-08-16T19:44:46.225Z,97616.47
2022-08-16T19:47:35.966Z,97614.09
2022-08-16T19:50:35.958Z,97610.63
2022-08-16T19:53:28.370Z,97606.41
2022-08-16T19:56:18.216Z,97604.38
2022-08-16T19:59:40.108Z,97607.84
2022-08-16T20:02:25.550Z,97599.63
2022-08-16T20:05:35.245Z,97591.66
2022-08-16T20:08:25.206Z,97597.84
2022-08-16T20:11:14.567Z,97597.56
2022-08-16T20:14:04.601Z,97595.50
2022-08-16T20:16:55.719Z,97597.13
2022-08-16T20:19:46.762Z,97593.66
2022-08-16T20:22:52.862Z,97600.66
2022-08-16T20:25:49.683Z,97602.59
2022-08-16T20:28:54.032Z,97601.06
2022-08-16T20:31:44.665Z,97604.00
2022-08-16T20:34:34.397Z,97603.19
2022-08-16T20:37:24.840Z,97603.97
2022-08-16T20:40:33.306Z,97607.66
2022-08-16T20:43:24.964Z,97609.59
2022-08-16T20:46:14.510Z,97606.66
2022-08-16T20:49:05.476Z,97608.34
2022-08-16T20:51:59.745Z,97607.09
2022-08-16T20:54:49.654Z,97609.31
2022-08-16T20:57:39.036Z,97612.09
2022-08-16T21:00:30.229Z,97616.56
2022-08-16T21:03:19.750Z,97615.72
2022-08-16T21:06:09.335Z,97618.09
2022-08-16T21:08:59.482Z,97616.28
2022-08-16T21:11:50.375Z,97620.75
2022-08-16T21:14:40.058Z,97621.19
2022-08-16T21:17:30.294Z,97625.34
2022-08-16T21:20:20.828Z,97626.19
2022-08-16T21:23:12.274Z,97632.00
2022-08-16T21:26:05.807Z,97621.59
2022-08-16T21:29:00.608Z,97625.75
2022-08-16T21:31:49.975Z,97623.13
2022-08-16T21:34:40.161Z,97623.81
2022-08-16T21:37:29.641Z,97614.06
2022-08-16T21:40:19.194Z,97615.47
2022-08-16T21:43:21.228Z,97617.41
2022-08-16T21:46:11.080Z,97610.47
2022-08-16T21:49:01.057Z,97604.91
2022-08-16T21:51:50.540Z,97602.09
2022-08-16T21:54:40.060Z,97598.50
2022-08-16T21:57:35.444Z,97602.00
2022-08-16T22:00:26.277Z,97592.53
2022-08-16T22:03:17.794Z,97590.03
2022-08-16T22:06:13.768Z,97597.97
2022-08-16T22:09:05.113Z,97594.91
2022-08-16T22:11:54.950Z,97591.16
2022-08-16T22:14:44.461Z,97584.47
2022-08-16T22:17:34.129Z,97592.13
2022-08-16T22:20:29.768Z,97588.22
2022-08-16T22:23:23.178Z,97582.94
2022-08-16T22:26:13.139Z,97581.91
2022-08-16T22:29:06.332Z,97582.66
2022-08-16T22:31:56.158Z,97576.34
2022-08-16T22:34:45.794Z,97582.06
2022-08-16T22:37:35.330Z,97568.03
2022-08-16T22:40:24.684Z,97570.41
2022-08-16T22:43:14.982Z,97570.78
2022-08-16T22:46:04.525Z,97578.72
2022-08-16T22:48:55.674Z,97585.94
2022-08-16T22:51:45.425Z,97575.94
2022-08-16T22:54:45.913Z,97573.44
2022-08-16T22:57:39.246Z,97565.09
2022-08-16T23:00:32.581Z,97562.88
2022-08-16T23:03:23.403Z,97567.84
2022-08-16T23:06:14.552Z,97557.31
2022-08-16T23:09:04.351Z,97559.53
2022-08-16T23:11:54.220Z,97561.22
2022-08-16T23:14:43.630Z,97557.31
2022-08-16T23:17:33.679Z,97557.72
2022-08-16T23:20:28.234Z,97567.28
2022-08-16T23:23:21.730Z,97563.81
2022-08-16T23:26:43.913Z,97565.94
2022-08-16T23:29:26.479Z,97572.88
2022-08-16T23:32:16.644Z,97577.97
2022-08-16T23:35:06.652Z,97579.53
2022-08-16T23:37:56.529Z,97587.03
2022-08-16T23:40:46.488Z,97581.69
2022-08-16T23:43:41.860Z,97589.59
2022-08-16T23:46:33.349Z,97599.06
2022-08-16T23:49:57.516Z,97595.69
2022-08-16T23:52:53.335Z,97603.03
2022-08-16T23:55:45.449Z,97608.31
2022-08-16T23:58:39.335Z,97607.66
